sensor_id;sensor_type;location;lat;lon;timestamp;P1;durP1;ratioP1;P2;durP2;ratioP2
23406;SDS011;11876;53.438;18.942;2024-02-15T00:00:12;30.90;;;20.13;;
23406;SDS011;11876;53.438;18.942;2024-02-15T00:03:18;30.23;;;23.35;;
23406;SDS011;11876;53.438;18.942;2024-02-15T00:06:23;35.55;;;22.58;;
23406;SDS011;11876;53.438;18.942;2024-02-15T00:09:26;33.92;;;21.95;;
23406;SDS011;11876;53.438;18.942;2024-02-15T00:12:33;33.15;;;20.95;;
23406;SDS011;11876;53.438;18.942;2024-02-15T00:15:40;30.27;;;21.30;;
23406;SDS011;11876;53.438;18.942;2024-02-15T00:18:43;32.03;;;21.63;;
23406;SDS011;11876;53.438;18.942;2024-02-15T00:21:46;41.03;;;25.52;;
23406;SDS011;11876;53.438;18.942;2024-02-15T00:24:49;36.90;;;25.15;;
23406;SDS011;11876;53.438;18.942;2024-02-15T00:27:52;28.63;;;18.00;;
23406;SDS011;11876;53.438;18.942;2024-02-15T00:30:54;33.90;;;22.45;;
23406;SDS011;11876;53.438;18.942;2024-02-15T00:33:57;36.42;;;23.27;;
23406;SDS011;11876;53.438;18.942;2024-02-15T00:37:10;38.75;;;26.85;;
23406;SDS011;11876;53.438;18.942;2024-02-15T00:40:21;37.03;;;25.88;;
23406;SDS011;11876;53.438;18.942;2024-02-15T00:43:27;34.42;;;23.55;;
23406;SDS011;11876;53.438;18.942;2024-02-15T00:46:31;38.50;;;24.52;;
23406;SDS011;11876;53.438;18.942;2024-02-15T00:49:37;38.33;;;25.00;;
23406;SDS011;11876;53.438;18.942;2024-02-15T00:52:44;40.58;;;26.75;;
23406;SDS011;11876;53.438;18.942;2024-02-15T00:55:51;37.47;;;25.23;;
23406;SDS011;11876;53.438;18.942;2024-02-15T00:59:07;40.80;;;26.55;;
23406;SDS011;11876;53.438;18.942;2024-02-15T01:02:09;47.22;;;26.60;;
23406;SDS011;11876;53.438;18.942;2024-02-15T01:05:12;40.13;;;27.15;;
23406;SDS011;11876;53.438;18.942;2024-02-15T01:08:20;39.40;;;26.80;;
23406;SDS011;11876;53.438;18.942;2024-02-15T01:11:23;39.78;;;26.67;;
23406;SDS011;11876;53.438;18.942;2024-02-15T01:14:25;44.75;;;29.27;;
23406;SDS011;11876;53.438;18.942;2024-02-15T01:17:32;51.30;;;30.80;;
23406;SDS011;11876;53.438;18.942;2024-02-15T01:20:34;51.00;;;31.38;;
23406;SDS011;11876;53.438;18.942;2024-02-15T01:23:38;47.35;;;31.75;;
23406;SDS011;11876;53.438;18.942;2024-02-15T01:26:41;51.42;;;30.90;;
23406;SDS011;11876;53.438;18.942;2024-02-15T01:29:43;50.70;;;33.28;;
23406;SDS011;11876;53.438;18.942;2024-02-15T01:35:50;53.42;;;33.00;;
23406;SDS011;11876;53.438;18.942;2024-02-15T01:38:52;51.72;;;34.22;;
23406;SDS011;11876;53.438;18.942;2024-02-15T01:41:55;48.35;;;33.22;;
23406;SDS011;11876;53.438;18.942;2024-02-15T01:45:01;49.83;;;31.77;;
23406;SDS011;11876;53.438;18.942;2024-02-15T01:48:04;49.78;;;33.92;;
23406;SDS011;11876;53.438;18.942;2024-02-15T01:51:07;35.88;;;24.58;;
23406;SDS011;11876;53.438;18.942;2024-02-15T01:54:10;61.85;;;38.90;;
23406;SDS011;11876;53.438;18.942;2024-02-15T01:57:14;58.15;;;36.45;;
23406;SDS011;11876;53.438;18.942;2024-02-15T02:00:17;55.63;;;36.97;;
23406;SDS011;11876;53.438;18.942;2024-02-15T02:03:21;50.35;;;28.17;;
23406;SDS011;11876;53.438;18.942;2024-02-15T02:06:23;56.13;;;35.20;;
23406;SDS011;11876;53.438;18.942;2024-02-15T02:09:26;59.10;;;36.25;;
23406;SDS011;11876;53.438;18.942;2024-02-15T02:12:28;55.67;;;34.92;;
23406;SDS011;11876;53.438;18.942;2024-02-15T02:15:31;68.85;;;38.70;;
23406;SDS011;11876;53.438;18.942;2024-02-15T02:18:34;49.42;;;28.45;;
23406;SDS011;11876;53.438;18.942;2024-02-15T02:21:37;67.72;;;37.97;;
23406;SDS011;11876;53.438;18.942;2024-02-15T02:28:02;58.60;;;36.25;;
23406;SDS011;11876;53.438;18.942;2024-02-15T02:31:04;67.10;;;37.03;;
23406;SDS011;11876;53.438;18.942;2024-02-15T02:34:07;59.50;;;36.55;;
23406;SDS011;11876;53.438;18.942;2024-02-15T02:37:10;58.67;;;35.63;;
23406;SDS011;11876;53.438;18.942;2024-02-15T02:40:13;60.92;;;37.05;;
23406;SDS011;11876;53.438;18.942;2024-02-15T02:43:15;65.72;;;37.88;;
23406;SDS011;11876;53.438;18.942;2024-02-15T02:46:18;58.90;;;34.45;;
23406;SDS011;11876;53.438;18.942;2024-02-15T02:49:20;56.28;;;33.03;;
23406;SDS011;11876;53.438;18.942;2024-02-15T02:52:23;68.43;;;39.45;;
23406;SDS011;11876;53.438;18.942;2024-02-15T02:55:25;58.78;;;35.63;;
23406;SDS011;11876;53.438;18.942;2024-02-15T02:58:29;62.63;;;40.08;;
23406;SDS011;11876;53.438;18.942;2024-02-15T03:01:31;61.05;;;36.03;;
23406;SDS011;11876;53.438;18.942;2024-02-15T03:04:34;58.63;;;34.78;;
23406;SDS011;11876;53.438;18.942;2024-02-15T03:07:38;54.65;;;35.03;;
23406;SDS011;11876;53.438;18.942;2024-02-15T03:10:47;61.42;;;36.80;;
23406;SDS011;11876;53.438;18.942;2024-02-15T03:13:57;63.85;;;38.42;;
23406;SDS011;11876;53.438;18.942;2024-02-15T03:17:01;56.03;;;35.30;;
23406;SDS011;11876;53.438;18.942;2024-02-15T03:20:08;46.97;;;28.45;;
23406;SDS011;11876;53.438;18.942;2024-02-15T03:23:24;58.78;;;34.45;;
23406;SDS011;11876;53.438;18.942;2024-02-15T03:26:30;62.38;;;40.22;;
23406;SDS011;11876;53.438;18.942;2024-02-15T03:29:40;58.20;;;34.47;;
23406;SDS011;11876;53.438;18.942;2024-02-15T03:32:42;61.42;;;37.80;;
23406;SDS011;11876;53.438;18.942;2024-02-15T03:35:45;60.22;;;36.95;;
23406;SDS011;11876;53.438;18.942;2024-02-15T03:38:47;59.17;;;35.22;;
23406;SDS011;11876;53.438;18.942;2024-02-15T03:41:50;55.15;;;35.10;;
23406;SDS011;11876;53.438;18.942;2024-02-15T03:44:52;56.55;;;33.35;;
23406;SDS011;11876;53.438;18.942;2024-02-15T03:47:56;57.23;;;35.70;;
23406;SDS011;11876;53.438;18.942;2024-02-15T03:50:58;72.57;;;43.35;;
23406;SDS011;11876;53.438;18.942;2024-02-15T03:54:01;56.47;;;32.97;;
23406;SDS011;11876;53.438;18.942;2024-02-15T03:57:05;62.78;;;35.10;;
23406;SDS011;11876;53.438;18.942;2024-02-15T04:00:08;54.88;;;33.47;;
23406;SDS011;11876;53.438;18.942;2024-02-15T04:03:23;69.22;;;38.25;;
23406;SDS011;11876;53.438;18.942;2024-02-15T04:06:26;57.72;;;35.00;;
23406;SDS011;11876;53.438;18.942;2024-02-15T04:09:32;59.70;;;36.63;;
23406;SDS011;11876;53.438;18.942;2024-02-15T04:12:37;62.20;;;35.35;;
23406;SDS011;11876;53.438;18.942;2024-02-15T04:15:39;60.97;;;38.65;;
23406;SDS011;11876;53.438;18.942;2024-02-15T04:18:43;56.58;;;34.70;;
23406;SDS011;11876;53.438;18.942;2024-02-15T04:21:47;53.58;;;34.13;;
23406;SDS011;11876;53.438;18.942;2024-02-15T04:24:49;58.33;;;36.33;;
23406;SDS011;11876;53.438;18.942;2024-02-15T04:27:51;63.05;;;36.05;;
23406;SDS011;11876;53.438;18.942;2024-02-15T04:30:54;56.28;;;34.22;;
23406;SDS011;11876;53.438;18.942;2024-02-15T04:34:05;64.72;;;39.88;;
23406;SDS011;11876;53.438;18.942;2024-02-15T04:37:07;61.22;;;39.20;;
23406;SDS011;11876;53.438;18.942;2024-02-15T04:40:10;57.90;;;37.45;;
23406;SDS011;11876;53.438;18.942;2024-02-15T04:43:15;56.95;;;35.28;;
23406;SDS011;11876;53.438;18.942;2024-02-15T04:46:18;63.58;;;39.65;;
23406;SDS011;11876;53.438;18.942;2024-02-15T04:49:23;57.50;;;37.00;;
23406;SDS011;11876;53.438;18.942;2024-02-15T04:52:26;74.75;;;45.35;;
23406;SDS011;11876;53.438;18.942;2024-02-15T04:55:28;54.05;;;34.72;;
23406;SDS011;11876;53.438;18.942;2024-02-15T04:58:33;74.47;;;42.78;;
23406;SDS011;11876;53.438;18.942;2024-02-15T05:01:38;59.30;;;35.63;;
23406;SDS011;11876;53.438;18.942;2024-02-15T05:04:41;54.60;;;32.72;;
23406;SDS011;11876;53.438;18.942;2024-02-15T05:07:44;61.45;;;35.58;;
23406;SDS011;11876;53.438;18.942;2024-02-15T05:10:46;54.55;;;35.05;;
23406;SDS011;11876;53.438;18.942;2024-02-15T05:13:49;59.95;;;35.05;;
23406;SDS011;11876;53.438;18.942;2024-02-15T05:16:52;55.47;;;33.55;;
23406;SDS011;11876;53.438;18.942;2024-02-15T05:19:54;58.17;;;35.78;;
23406;SDS011;11876;53.438;18.942;2024-02-15T05:23:00;59.90;;;36.50;;
23406;SDS011;11876;53.438;18.942;2024-02-15T05:26:03;62.67;;;35.47;;
23406;SDS011;11876;53.438;18.942;2024-02-15T05:29:05;56.03;;;33.22;;
23406;SDS011;11876;53.438;18.942;2024-02-15T05:32:08;63.70;;;34.85;;
23406;SDS011;11876;53.438;18.942;2024-02-15T05:35:11;58.25;;;35.08;;
23406;SDS011;11876;53.438;18.942;2024-02-15T05:38:13;65.82;;;38.75;;
23406;SDS011;11876;53.438;18.942;2024-02-15T05:41:18;59.92;;;34.55;;
23406;SDS011;11876;53.438;18.942;2024-02-15T05:44:22;76.25;;;43.88;;
23406;SDS011;11876;53.438;18.942;2024-02-15T05:47:27;56.42;;;32.45;;
23406;SDS011;11876;53.438;18.942;2024-02-15T05:50:29;58.08;;;33.15;;
23406;SDS011;11876;53.438;18.942;2024-02-15T05:53:33;63.70;;;33.38;;
23406;SDS011;11876;53.438;18.942;2024-02-15T05:56:39;62.30;;;35.90;;
23406;SDS011;11876;53.438;18.942;2024-02-15T05:59:41;58.15;;;34.83;;
23406;SDS011;11876;53.438;18.942;2024-02-15T06:02:44;64.13;;;35.58;;
23406;SDS011;11876;53.438;18.942;2024-02-15T06:05:47;54.10;;;32.03;;
23406;SDS011;11876;53.438;18.942;2024-02-15T06:08:49;71.43;;;39.10;;
23406;SDS011;11876;53.438;18.942;2024-02-15T06:11:52;54.95;;;31.88;;
23406;SDS011;11876;53.438;18.942;2024-02-15T06:14:57;61.45;;;34.60;;
23406;SDS011;11876;53.438;18.942;2024-02-15T06:17:59;59.40;;;34.13;;
23406;SDS011;11876;53.438;18.942;2024-02-15T06:21:02;65.20;;;36.83;;
23406;SDS011;11876;53.438;18.942;2024-02-15T06:24:05;73.70;;;37.70;;
23406;SDS011;11876;53.438;18.942;2024-02-15T06:27:07;50.83;;;30.48;;
23406;SDS011;11876;53.438;18.942;2024-02-15T06:30:11;54.17;;;32.72;;
23406;SDS011;11876;53.438;18.942;2024-02-15T06:33:33;64.65;;;34.58;;
23406;SDS011;11876;53.438;18.942;2024-02-15T06:36:55;59.47;;;33.22;;
23406;SDS011;11876;53.438;18.942;2024-02-15T06:40:17;61.10;;;35.88;;
23406;SDS011;11876;53.438;18.942;2024-02-15T06:43:19;56.40;;;34.08;;
23406;SDS011;11876;53.438;18.942;2024-02-15T06:46:22;57.25;;;33.75;;
23406;SDS011;11876;53.438;18.942;2024-02-15T06:49:25;61.70;;;35.40;;
23406;SDS011;11876;53.438;18.942;2024-02-15T06:52:27;65.43;;;37.45;;
23406;SDS011;11876;53.438;18.942;2024-02-15T06:55:30;60.15;;;34.38;;
23406;SDS011;11876;53.438;18.942;2024-02-15T06:58:32;63.45;;;35.45;;
23406;SDS011;11876;53.438;18.942;2024-02-15T07:01:35;57.47;;;33.83;;
23406;SDS011;11876;53.438;18.942;2024-02-15T07:07:41;61.38;;;35.92;;
23406;SDS011;11876;53.438;18.942;2024-02-15T07:10:44;59.88;;;35.90;;
23406;SDS011;11876;53.438;18.942;2024-02-15T07:13:47;61.28;;;35.17;;
23406;SDS011;11876;53.438;18.942;2024-02-15T07:16:49;60.38;;;34.85;;
23406;SDS011;11876;53.438;18.942;2024-02-15T07:19:52;57.55;;;37.00;;
23406;SDS011;11876;53.438;18.942;2024-02-15T07:22:54;80.93;;;48.05;;
23406;SDS011;11876;53.438;18.942;2024-02-15T07:25:57;84.97;;;47.13;;
23406;SDS011;11876;53.438;18.942;2024-02-15T07:28:59;62.75;;;38.30;;
23406;SDS011;11876;53.438;18.942;2024-02-15T07:32:02;77.85;;;44.22;;
23406;SDS011;11876;53.438;18.942;2024-02-15T07:35:07;73.45;;;41.95;;
23406;SDS011;11876;53.438;18.942;2024-02-15T07:38:10;87.20;;;48.13;;
23406;SDS011;11876;53.438;18.942;2024-02-15T07:41:13;54.63;;;33.97;;
23406;SDS011;11876;53.438;18.942;2024-02-15T07:44:15;68.80;;;41.17;;
23406;SDS011;11876;53.438;18.942;2024-02-15T07:47:19;67.03;;;43.17;;
23406;SDS011;11876;53.438;18.942;2024-02-15T07:50:25;58.30;;;37.45;;
23406;SDS011;11876;53.438;18.942;2024-02-15T07:53:27;58.05;;;35.55;;
23406;SDS011;11876;53.438;18.942;2024-02-15T07:56:30;61.55;;;36.92;;
23406;SDS011;11876;53.438;18.942;2024-02-15T07:59:32;62.30;;;40.60;;
23406;SDS011;11876;53.438;18.942;2024-02-15T08:02:35;67.53;;;41.22;;
23406;SDS011;11876;53.438;18.942;2024-02-15T08:05:37;58.03;;;37.30;;
23406;SDS011;11876;53.438;18.942;2024-02-15T08:08:40;66.63;;;42.22;;
23406;SDS011;11876;53.438;18.942;2024-02-15T08:11:49;58.85;;;37.58;;
23406;SDS011;11876;53.438;18.942;2024-02-15T08:14:52;68.60;;;44.55;;
23406;SDS011;11876;53.438;18.942;2024-02-15T08:17:55;69.10;;;46.00;;
23406;SDS011;11876;53.438;18.942;2024-02-15T08:20:58;56.78;;;36.97;;
23406;SDS011;11876;53.438;18.942;2024-02-15T08:24:00;63.47;;;42.78;;
23406;SDS011;11876;53.438;18.942;2024-02-15T08:27:08;57.97;;;42.65;;
23406;SDS011;11876;53.438;18.942;2024-02-15T08:33:15;61.92;;;41.65;;
23406;SDS011;11876;53.438;18.942;2024-02-15T08:36:17;58.50;;;38.97;;
23406;SDS011;11876;53.438;18.942;2024-02-15T08:39:20;68.53;;;46.40;;
23406;SDS011;11876;53.438;18.942;2024-02-15T08:42:23;65.68;;;47.22;;
23406;SDS011;11876;53.438;18.942;2024-02-15T08:45:26;64.07;;;45.70;;
23406;SDS011;11876;53.438;18.942;2024-02-15T08:48:29;59.03;;;40.72;;
23406;SDS011;11876;53.438;18.942;2024-02-15T08:51:32;79.60;;;51.80;;
23406;SDS011;11876;53.438;18.942;2024-02-15T08:54:37;67.38;;;50.60;;
23406;SDS011;11876;53.438;18.942;2024-02-15T08:57:43;57.78;;;41.53;;
23406;SDS011;11876;53.438;18.942;2024-02-15T09:00:46;59.63;;;41.58;;
23406;SDS011;11876;53.438;18.942;2024-02-15T09:03:49;61.03;;;43.03;;
23406;SDS011;11876;53.438;18.942;2024-02-15T09:06:51;59.97;;;42.80;;
23406;SDS011;11876;53.438;18.942;2024-02-15T09:09:54;56.25;;;41.92;;
23406;SDS011;11876;53.438;18.942;2024-02-15T09:12:56;55.85;;;42.17;;
23406;SDS011;11876;53.438;18.942;2024-02-15T09:15:59;63.97;;;47.80;;
23406;SDS011;11876;53.438;18.942;2024-02-15T09:19:01;49.90;;;39.40;;
23406;SDS011;11876;53.438;18.942;2024-02-15T09:22:04;52.72;;;42.58;;
23406;SDS011;11876;53.438;18.942;2024-02-15T09:25:08;43.00;;;33.65;;
23406;SDS011;11876;53.438;18.942;2024-02-15T09:28:12;50.78;;;39.30;;
23406;SDS011;11876;53.438;18.942;2024-02-15T09:31:15;53.17;;;42.40;;
23406;SDS011;11876;53.438;18.942;2024-02-15T09:34:18;62.40;;;48.60;;
23406;SDS011;11876;53.438;18.942;2024-02-15T09:37:20;67.28;;;49.55;;
23406;SDS011;11876;53.438;18.942;2024-02-15T09:40:23;51.63;;;39.17;;
23406;SDS011;11876;53.438;18.942;2024-02-15T09:43:31;66.10;;;51.33;;
23406;SDS011;11876;53.438;18.942;2024-02-15T09:46:38;50.80;;;39.58;;
23406;SDS011;11876;53.438;18.942;2024-02-15T09:49:46;70.82;;;46.17;;
23406;SDS011;11876;53.438;18.942;2024-02-15T09:52:50;55.08;;;35.42;;
23406;SDS011;11876;53.438;18.942;2024-02-15T09:55:54;68.63;;;46.58;;
23406;SDS011;11876;53.438;18.942;2024-02-15T09:58:57;53.30;;;39.53;;
23406;SDS011;11876;53.438;18.942;2024-02-15T10:02:02;51.70;;;41.47;;
23406;SDS011;11876;53.438;18.942;2024-02-15T10:05:05;58.03;;;41.95;;
23406;SDS011;11876;53.438;18.942;2024-02-15T10:08:08;71.15;;;45.78;;
23406;SDS011;11876;53.438;18.942;2024-02-15T10:11:19;64.50;;;48.25;;
23406;SDS011;11876;53.438;18.942;2024-02-15T10:14:25;56.08;;;41.50;;
23406;SDS011;11876;53.438;18.942;2024-02-15T10:17:28;47.70;;;36.17;;
23406;SDS011;11876;53.438;18.942;2024-02-15T10:20:40;61.33;;;40.67;;
23406;SDS011;11876;53.438;18.942;2024-02-15T10:23:47;48.55;;;37.10;;
23406;SDS011;11876;53.438;18.942;2024-02-15T10:26:49;54.58;;;42.22;;
23406;SDS011;11876;53.438;18.942;2024-02-15T10:29:52;63.83;;;40.03;;
23406;SDS011;11876;53.438;18.942;2024-02-15T10:32:55;56.45;;;40.03;;
23406;SDS011;11876;53.438;18.942;2024-02-15T10:39:16;64.78;;;45.55;;
23406;SDS011;11876;53.438;18.942;2024-02-15T10:42:21;54.28;;;38.60;;
23406;SDS011;11876;53.438;18.942;2024-02-15T10:45:24;40.95;;;32.65;;
23406;SDS011;11876;53.438;18.942;2024-02-15T10:48:27;46.35;;;32.30;;
23406;SDS011;11876;53.438;18.942;2024-02-15T10:51:30;47.67;;;34.33;;
23406;SDS011;11876;53.438;18.942;2024-02-15T10:54:52;60.72;;;41.78;;
23406;SDS011;11876;53.438;18.942;2024-02-15T10:58:00;65.00;;;44.90;;
23406;SDS011;11876;53.438;18.942;2024-02-15T11:01:06;52.22;;;39.05;;
23406;SDS011;11876;53.438;18.942;2024-02-15T11:04:12;53.45;;;38.33;;
23406;SDS011;11876;53.438;18.942;2024-02-15T11:07:17;56.95;;;42.45;;
23406;SDS011;11876;53.438;18.942;2024-02-15T11:10:25;48.28;;;34.35;;
23406;SDS011;11876;53.438;18.942;2024-02-15T11:16:43;67.35;;;44.88;;
23406;SDS011;11876;53.438;18.942;2024-02-15T11:19:47;80.88;;;52.47;;
23406;SDS011;11876;53.438;18.942;2024-02-15T11:22:55;69.55;;;48.00;;
23406;SDS011;11876;53.438;18.942;2024-02-15T11:26:01;77.45;;;52.05;;
23406;SDS011;11876;53.438;18.942;2024-02-15T11:29:03;51.33;;;36.63;;
23406;SDS011;11876;53.438;18.942;2024-02-15T11:32:07;73.13;;;51.55;;
23406;SDS011;11876;53.438;18.942;2024-02-15T11:35:11;104.53;;;69.72;;
23406;SDS011;11876;53.438;18.942;2024-02-15T11:38:27;84.65;;;56.75;;
23406;SDS011;11876;53.438;18.942;2024-02-15T11:41:30;52.17;;;36.60;;
23406;SDS011;11876;53.438;18.942;2024-02-15T11:44:32;72.53;;;50.15;;
23406;SDS011;11876;53.438;18.942;2024-02-15T11:47:39;61.10;;;41.08;;
23406;SDS011;11876;53.438;18.942;2024-02-15T11:50:44;46.50;;;34.08;;
23406;SDS011;11876;53.438;18.942;2024-02-15T11:53:57;49.88;;;34.20;;
23406;SDS011;11876;53.438;18.942;2024-02-15T11:57:01;58.70;;;41.25;;
23406;SDS011;11876;53.438;18.942;2024-02-15T12:00:12;55.50;;;39.05;;
23406;SDS011;11876;53.438;18.942;2024-02-15T12:03:45;53.53;;;34.70;;
23406;SDS011;11876;53.438;18.942;2024-02-15T12:07:08;51.72;;;34.25;;
23406;SDS011;11876;53.438;18.942;2024-02-15T12:10:29;47.42;;;34.33;;
23406;SDS011;11876;53.438;18.942;2024-02-15T12:13:51;50.72;;;33.75;;
23406;SDS011;11876;53.438;18.942;2024-02-15T12:17:13;55.30;;;38.60;;
23406;SDS011;11876;53.438;18.942;2024-02-15T12:20:34;47.95;;;35.35;;
23406;SDS011;11876;53.438;18.942;2024-02-15T12:23:37;59.83;;;40.83;;
23406;SDS011;11876;53.438;18.942;2024-02-15T12:26:42;66.78;;;46.70;;
23406;SDS011;11876;53.438;18.942;2024-02-15T12:29:45;65.03;;;47.20;;
23406;SDS011;11876;53.438;18.942;2024-02-15T12:35:52;49.45;;;33.38;;
23406;SDS011;11876;53.438;18.942;2024-02-15T12:39:01;52.38;;;35.47;;
23406;SDS011;11876;53.438;18.942;2024-02-15T12:42:06;61.90;;;40.30;;
23406;SDS011;11876;53.438;18.942;2024-02-15T12:45:17;55.50;;;36.83;;
23406;SDS011;11876;53.438;18.942;2024-02-15T12:48:22;53.85;;;35.50;;
23406;SDS011;11876;53.438;18.942;2024-02-15T12:51:25;54.83;;;39.92;;
23406;SDS011;11876;53.438;18.942;2024-02-15T12:54:36;57.03;;;40.47;;
23406;SDS011;11876;53.438;18.942;2024-02-15T13:00:46;108.88;;;63.65;;
23406;SDS011;11876;53.438;18.942;2024-02-15T13:03:49;77.57;;;47.60;;
23406;SDS011;11876;53.438;18.942;2024-02-15T13:06:55;70.35;;;45.35;;
23406;SDS011;11876;53.438;18.942;2024-02-15T13:09:59;93.43;;;57.88;;
23406;SDS011;11876;53.438;18.942;2024-02-15T13:13:02;62.35;;;42.55;;
23406;SDS011;11876;53.438;18.942;2024-02-15T13:16:04;68.55;;;44.60;;
23406;SDS011;11876;53.438;18.942;2024-02-15T13:19:12;128.57;;;70.78;;
23406;SDS011;11876;53.438;18.942;2024-02-15T13:22:15;135.27;;;71.40;;
23406;SDS011;11876;53.438;18.942;2024-02-15T13:25:20;116.25;;;67.68;;
23406;SDS011;11876;53.438;18.942;2024-02-15T13:28:28;79.43;;;51.53;;
23406;SDS011;11876;53.438;18.942;2024-02-15T13:31:36;68.57;;;45.85;;
23406;SDS011;11876;53.438;18.942;2024-02-15T13:34:43;64.38;;;45.78;;
23406;SDS011;11876;53.438;18.942;2024-02-15T13:37:51;61.95;;;41.08;;
23406;SDS011;11876;53.438;18.942;2024-02-15T13:40:55;75.07;;;50.90;;
23406;SDS011;11876;53.438;18.942;2024-02-15T13:43:58;44.33;;;30.48;;
23406;SDS011;11876;53.438;18.942;2024-02-15T13:47:01;72.07;;;50.70;;
23406;SDS011;11876;53.438;18.942;2024-02-15T13:50:03;71.13;;;49.17;;
23406;SDS011;11876;53.438;18.942;2024-02-15T13:53:06;70.60;;;46.97;;
23406;SDS011;11876;53.438;18.942;2024-02-15T13:56:13;58.10;;;39.20;;
23406;SDS011;11876;53.438;18.942;2024-02-15T13:59:18;81.18;;;48.22;;
23406;SDS011;11876;53.438;18.942;2024-02-15T14:02:23;83.00;;;53.25;;
23406;SDS011;11876;53.438;18.942;2024-02-15T14:05:32;76.35;;;48.38;;
23406;SDS011;11876;53.438;18.942;2024-02-15T14:08:45;55.25;;;36.95;;
23406;SDS011;11876;53.438;18.942;2024-02-15T14:11:50;107.40;;;72.80;;
23406;SDS011;11876;53.438;18.942;2024-02-15T14:14:54;91.20;;;61.17;;
23406;SDS011;11876;53.438;18.942;2024-02-15T14:17:57;72.47;;;48.92;;
23406;SDS011;11876;53.438;18.942;2024-02-15T14:21:01;83.93;;;54.33;;
23406;SDS011;11876;53.438;18.942;2024-02-15T14:24:04;76.55;;;55.45;;
23406;SDS011;11876;53.438;18.942;2024-02-15T14:27:08;71.28;;;50.85;;
23406;SDS011;11876;53.438;18.942;2024-02-15T14:30:12;61.10;;;43.22;;
23406;SDS011;11876;53.438;18.942;2024-02-15T14:33:37;62.65;;;45.25;;
23406;SDS011;11876;53.438;18.942;2024-02-15T14:36:44;62.40;;;42.72;;
23406;SDS011;11876;53.438;18.942;2024-02-15T14:39:49;66.65;;;47.75;;
23406;SDS011;11876;53.438;18.942;2024-02-15T14:42:51;84.00;;;63.15;;
23406;SDS011;11876;53.438;18.942;2024-02-15T14:45:57;66.57;;;46.38;;
23406;SDS011;11876;53.438;18.942;2024-02-15T14:49:03;50.30;;;36.50;;
23406;SDS011;11876;53.438;18.942;2024-02-15T14:52:07;43.07;;;31.50;;
23406;SDS011;11876;53.438;18.942;2024-02-15T14:55:23;54.65;;;39.85;;
23406;SDS011;11876;53.438;18.942;2024-02-15T14:58:27;55.45;;;37.33;;
23406;SDS011;11876;53.438;18.942;2024-02-15T15:01:29;57.08;;;39.45;;
23406;SDS011;11876;53.438;18.942;2024-02-15T15:04:32;57.10;;;39.53;;
23406;SDS011;11876;53.438;18.942;2024-02-15T15:11:17;73.28;;;48.35;;
23406;SDS011;11876;53.438;18.942;2024-02-15T15:14:39;67.20;;;47.45;;
23406;SDS011;11876;53.438;18.942;2024-02-15T15:17:42;52.55;;;38.47;;
23406;SDS011;11876;53.438;18.942;2024-02-15T15:20:46;54.20;;;41.80;;
23406;SDS011;11876;53.438;18.942;2024-02-15T15:23:54;62.65;;;43.53;;
23406;SDS011;11876;53.438;18.942;2024-02-15T15:27:10;63.17;;;42.95;;
23406;SDS011;11876;53.438;18.942;2024-02-15T15:30:14;56.83;;;41.08;;
23406;SDS011;11876;53.438;18.942;2024-02-15T15:33:20;67.63;;;48.70;;
23406;SDS011;11876;53.438;18.942;2024-02-15T15:36:23;63.05;;;47.83;;
23406;SDS011;11876;53.438;18.942;2024-02-15T15:39:26;68.22;;;50.20;;
23406;SDS011;11876;53.438;18.942;2024-02-15T15:42:32;65.60;;;44.58;;
23406;SDS011;11876;53.438;18.942;2024-02-15T15:45:34;64.78;;;44.13;;
23406;SDS011;11876;53.438;18.942;2024-02-15T15:48:37;62.28;;;46.65;;
23406;SDS011;11876;53.438;18.942;2024-02-15T15:51:42;65.10;;;47.80;;
23406;SDS011;11876;53.438;18.942;2024-02-15T15:54:45;56.92;;;42.65;;
23406;SDS011;11876;53.438;18.942;2024-02-15T15:57:48;59.58;;;38.60;;
23406;SDS011;11876;53.438;18.942;2024-02-15T16:00:51;64.00;;;44.35;;
23406;SDS011;11876;53.438;18.942;2024-02-15T16:03:53;61.70;;;46.53;;
23406;SDS011;11876;53.438;18.942;2024-02-15T16:06:56;62.00;;;46.03;;
23406;SDS011;11876;53.438;18.942;2024-02-15T16:09:58;59.40;;;43.80;;
23406;SDS011;11876;53.438;18.942;2024-02-15T16:13:01;58.85;;;43.75;;
23406;SDS011;11876;53.438;18.942;2024-02-15T16:18:34;61.83;;;45.50;;
23406;SDS011;11876;53.438;18.942;2024-02-15T16:21:36;61.78;;;45.95;;
23406;SDS011;11876;53.438;18.942;2024-02-15T17:54:55;53.97;;;43.13;;
23406;SDS011;11876;53.438;18.942;2024-02-15T17:58:05;71.72;;;54.83;;
23406;SDS011;11876;53.438;18.942;2024-02-15T18:01:18;73.07;;;49.63;;
23406;SDS011;11876;53.438;18.942;2024-02-15T18:04:21;69.23;;;43.60;;
23406;SDS011;11876;53.438;18.942;2024-02-15T18:07:25;60.58;;;41.92;;
23406;SDS011;11876;53.438;18.942;2024-02-15T18:10:31;60.75;;;41.65;;
23406;SDS011;11876;53.438;18.942;2024-02-15T18:13:37;59.33;;;41.15;;
23406;SDS011;11876;53.438;18.942;2024-02-15T18:16:43;56.92;;;39.53;;
23406;SDS011;11876;53.438;18.942;2024-02-15T18:19:52;45.47;;;33.58;;
23406;SDS011;11876;53.438;18.942;2024-02-15T18:23:00;46.58;;;34.83;;
23406;SDS011;11876;53.438;18.942;2024-02-15T18:26:02;53.25;;;37.42;;
23406;SDS011;11876;53.438;18.942;2024-02-15T18:29:06;34.25;;;25.45;;
23406;SDS011;11876;53.438;18.942;2024-02-15T18:32:13;45.97;;;33.80;;
23406;SDS011;11876;53.438;18.942;2024-02-15T18:35:22;41.67;;;32.17;;
23406;SDS011;11876;53.438;18.942;2024-02-15T18:38:30;47.10;;;33.85;;
23406;SDS011;11876;53.438;18.942;2024-02-15T18:41:41;48.72;;;35.45;;
23406;SDS011;11876;53.438;18.942;2024-02-15T18:44:50;55.30;;;40.20;;
23406;SDS011;11876;53.438;18.942;2024-02-15T18:47:56;48.15;;;35.38;;
23406;SDS011;11876;53.438;18.942;2024-02-15T18:51:05;47.45;;;34.38;;
23406;SDS011;11876;53.438;18.942;2024-02-15T18:54:08;48.58;;;34.35;;
23406;SDS011;11876;53.438;18.942;2024-02-15T18:57:12;44.13;;;33.78;;
23406;SDS011;11876;53.438;18.942;2024-02-15T19:00:28;46.65;;;36.40;;
23406;SDS011;11876;53.438;18.942;2024-02-15T19:03:40;44.97;;;33.55;;
23406;SDS011;11876;53.438;18.942;2024-02-15T19:06:45;49.28;;;34.65;;
23406;SDS011;11876;53.438;18.942;2024-02-15T19:09:48;45.45;;;34.38;;
23406;SDS011;11876;53.438;18.942;2024-02-15T19:12:52;45.40;;;34.85;;
23406;SDS011;11876;53.438;18.942;2024-02-15T19:15:58;37.67;;;28.08;;
23406;SDS011;11876;53.438;18.942;2024-02-15T19:19:02;51.65;;;38.03;;
23406;SDS011;11876;53.438;18.942;2024-02-15T19:22:14;43.08;;;33.35;;
23406;SDS011;11876;53.438;18.942;2024-02-15T19:25:21;51.55;;;34.47;;
23406;SDS011;11876;53.438;18.942;2024-02-15T19:28:23;42.47;;;32.55;;
23406;SDS011;11876;53.438;18.942;2024-02-15T19:31:27;42.10;;;32.00;;
23406;SDS011;11876;53.438;18.942;2024-02-15T19:34:30;46.30;;;34.17;;
23406;SDS011;11876;53.438;18.942;2024-02-15T19:37:33;50.58;;;36.88;;
23406;SDS011;11876;53.438;18.942;2024-02-15T19:43:45;46.35;;;33.85;;
23406;SDS011;11876;53.438;18.942;2024-02-15T19:46:52;54.17;;;38.85;;
23406;SDS011;11876;53.438;18.942;2024-02-15T19:49:57;52.00;;;37.85;;